createdAt,value
2022-09-23T00:00:58.810Z,15.00
2022-09-23T00:06:04.475Z,16.17
2022-09-23T00:11:07.057Z,14.80
2022-09-23T00:16:12.816Z,14.10
2022-09-23T00:21:14.626Z,14.27
2022-09-23T00:26:16.894Z,15.10
2022-09-23T00:31:20.328Z,13.45
2022-09-23T00:36:21.732Z,14.35
2022-09-23T00:41:23.648Z,14.60
2022-09-23T00:46:30.214Z,14.73
2022-09-23T00:51:34.503Z,13.88
2022-09-23T00:56:36.675Z,14.20
2022-09-23T01:01:38.712Z,13.25
2022-09-23T01:06:40.946Z,15.05
2022-09-23T01:12:02.843Z,12.25
2022-09-23T01:17:14.833Z,11.80
2022-09-23T01:22:16.170Z,15.60
2022-09-23T01:27:20.676Z,11.85
2022-09-23T01:32:42.404Z,14.05
2022-09-23T01:37:48.171Z,16.20
2022-09-23T01:42:54.945Z,16.10
2022-09-23T01:48:01.937Z,14.98
2022-09-23T01:53:10.810Z,15.48
2022-09-23T01:58:14.834Z,16.27
2022-09-23T02:03:29.382Z,14.05
2022-09-23T02:08:37.963Z,16.02
2022-09-23T02:13:54.872Z,14.93
2022-09-23T02:18:59.148Z,15.75
2022-09-23T02:24:03.825Z,15.45
2022-09-23T02:29:08.956Z,16.25
2022-09-23T02:34:39.736Z,16.90
2022-09-23T02:39:51.939Z,14.77
2022-09-23T02:44:53.459Z,16.20
2022-09-23T02:49:56.402Z,15.57
2022-09-23T02:54:57.809Z,16.65
2022-09-23T02:59:59.195Z,15.65
2022-09-23T03:05:00.529Z,17.05
2022-09-23T03:10:07.636Z,15.60
2022-09-23T03:15:26.844Z,14.52
2022-09-23T03:20:34.153Z,14.17
2022-09-23T03:25:37.280Z,15.35
2022-09-23T03:30:39.387Z,16.42
2022-09-23T03:36:07.620Z,16.20
2022-09-23T03:41:10.891Z,17.95
2022-09-23T03:46:12.946Z,13.68
2022-09-23T03:51:22.733Z,17.83
2022-09-23T04:01:25.607Z,15.70
2022-09-23T04:06:26.983Z,15.00
2022-09-23T04:11:29.004Z,17.38
2022-09-23T04:16:30.489Z,18.38
2022-09-23T04:21:32.172Z,17.58
2022-09-23T04:26:33.770Z,17.25
2022-09-23T04:31:35.235Z,15.20
2022-09-23T04:36:36.640Z,16.58
2022-09-23T04:41:38.345Z,16.67
2022-09-23T04:46:40.536Z,16.48
2022-09-23T04:51:45.646Z,15.73
2022-09-23T04:56:47.004Z,15.02
2022-09-23T05:01:48.497Z,15.60
2022-09-23T05:06:49.939Z,15.43
2022-09-23T05:11:52.591Z,13.85
2022-09-23T05:16:53.910Z,15.43
2022-09-23T05:21:55.491Z,14.68
2022-09-23T05:26:56.886Z,15.45
2022-09-23T05:31:58.261Z,14.63
2022-09-23T05:37:00.406Z,15.95
2022-09-23T05:42:01.820Z,14.40
2022-09-23T05:47:03.320Z,15.80
2022-09-23T05:52:04.816Z,14.90
2022-09-23T05:57:06.369Z,18.15
2022-09-23T06:02:09.014Z,17.20
2022-09-23T06:07:10.542Z,17.02
2022-09-23T06:12:14.113Z,16.88
2022-09-23T06:17:15.493Z,14.93
2022-09-23T06:22:17.840Z,15.32
2022-09-23T06:27:19.224Z,15.93
2022-09-23T06:32:20.734Z,17.45
2022-09-23T06:37:22.120Z,15.77
2022-09-23T06:42:23.518Z,15.27
2022-09-23T06:47:24.888Z,14.07
2022-09-23T06:52:26.809Z,14.38
2022-09-23T06:57:32.850Z,14.70
2022-09-23T07:02:34.285Z,17.75
2022-09-23T07:07:37.442Z,14.90
2022-09-23T07:12:38.831Z,14.80
2022-09-23T07:17:41.642Z,14.10
2022-09-23T07:22:44.066Z,14.27
2022-09-23T07:27:47.344Z,14.75
2022-09-23T07:32:49.414Z,15.57
2022-09-23T07:37:50.905Z,15.85
2022-09-23T07:42:52.289Z,14.75
2022-09-23T07:47:56.248Z,15.27
2022-09-23T07:52:57.771Z,15.80
2022-09-23T07:57:59.113Z,15.98
2022-09-23T08:03:00.538Z,16.95
2022-09-23T08:08:02.113Z,17.17
2022-09-23T08:13:03.537Z,16.48
2022-09-23T08:18:04.940Z,17.08
2022-09-23T08:23:06.421Z,18.65
2022-09-23T08:28:08.419Z,18.10
2022-09-23T08:33:11.009Z,15.85
2022-09-23T08:38:12.357Z,19.17
2022-09-23T08:43:31.315Z,15.55
2022-09-23T08:48:36.356Z,15.90
2022-09-23T08:53:38.140Z,17.95
2022-09-23T08:58:48.319Z,19.48
2022-09-23T09:04:00.161Z,16.40
2022-09-23T09:09:02.644Z,17.17
2022-09-23T09:14:22.626Z,17.30
2022-09-23T09:24:33.673Z,15.55
2022-09-23T09:29:39.088Z,16.40
2022-09-23T09:34:45.542Z,18.10
2022-09-23T09:39:46.933Z,16.05
2022-09-23T09:44:50.806Z,17.02
2022-09-23T09:49:59.000Z,17.17
2022-09-23T09:55:12.305Z,16.98
2022-09-23T10:00:26.400Z,17.17
2022-09-23T10:05:27.762Z,16.30
2022-09-23T10:10:32.802Z,18.13
2022-09-23T10:15:44.748Z,17.92
2022-09-23T10:20:47.896Z,14.90
2022-09-23T10:26:02.883Z,16.17
2022-09-23T10:31:05.662Z,18.35
2022-09-23T10:36:11.340Z,18.42
2022-09-23T10:41:53.189Z,18.00
2022-09-23T10:47:14.595Z,16.33
2022-09-23T10:52:28.265Z,16.50
2022-09-23T10:57:45.069Z,15.10
2022-09-23T11:02:58.783Z,17.52
2022-09-23T11:08:03.517Z,16.17
2022-09-23T11:13:10.586Z,17.95
2022-09-23T11:18:16.706Z,16.52
2022-09-23T11:23:24.124Z,17.77
2022-09-23T11:28:31.544Z,16.20
2022-09-23T11:33:37.647Z,16.42
2022-09-23T11:38:47.243Z,16.92
2022-09-23T11:49:11.360Z,17.33
2022-09-23T11:59:40.272Z,16.27
2022-09-23T12:04:54.132Z,18.10
2022-09-23T12:10:03.594Z,16.73
2022-09-23T12:15:24.694Z,19.42
2022-09-23T12:20:52.509Z,18.45
2022-09-23T12:25:56.448Z,19.95
2022-09-23T12:30:59.080Z,16.98
2022-09-23T12:36:09.097Z,17.65
2022-09-23T12:41:26.874Z,20.85
2022-09-23T12:46:28.355Z,16.42
2022-09-23T12:51:30.767Z,17.70
2022-09-23T12:56:38.738Z,17.88
2022-09-23T13:01:40.832Z,18.25
2022-09-23T13:07:01.440Z,16.08
2022-09-23T13:12:05.734Z,15.82
2022-09-23T13:17:07.096Z,17.48
2022-09-23T13:22:09.632Z,14.13
2022-09-23T13:27:30.885Z,16.40
2022-09-23T13:32:38.166Z,16.20
2022-09-23T13:37:47.625Z,14.20
2022-09-23T13:47:51.621Z,15.27
2022-09-23T13:52:59.790Z,16.42
2022-09-23T13:58:20.918Z,13.48
2022-09-23T14:03:36.654Z,15.18
2022-09-23T14:08:39.706Z,14.82
2022-09-23T14:13:42.315Z,14.30
2022-09-23T14:18:43.698Z,16.85
2022-09-23T14:23:45.346Z,19.27
2022-09-23T14:28:47.247Z,13.52
2022-09-23T14:33:48.655Z,15.27
2022-09-23T14:38:52.913Z,13.93
2022-09-23T14:43:58.783Z,14.25
2022-09-23T14:49:12.520Z,18.27
2022-09-23T14:54:35.358Z,15.27
2022-09-23T14:59:37.085Z,16.13
2022-09-23T15:04:38.493Z,16.20
2022-09-23T15:09:40.700Z,15.20
2022-09-23T15:14:46.600Z,16.55
2022-09-23T15:19:52.616Z,14.15
2022-09-23T15:24:55.078Z,16.73
2022-09-23T15:30:03.944Z,14.75
2022-09-23T15:35:06.828Z,16.03
2022-09-23T15:40:17.036Z,15.40
2022-09-23T15:45:21.869Z,18.27
2022-09-23T15:50:23.233Z,13.48
2022-09-23T15:55:24.932Z,14.68
2022-09-23T16:00:26.669Z,16.10
2022-09-23T16:05:34.865Z,14.32
2022-09-23T16:10:36.714Z,15.30
2022-09-23T16:15:39.623Z,15.57
2022-09-23T16:20:42.587Z,14.82
2022-09-23T16:25:44.486Z,14.85
2022-09-23T16:30:45.860Z,15.43
2022-09-23T16:35:47.542Z,15.65
2022-09-23T16:40:48.948Z,16.02
2022-09-23T16:45:50.324Z,17.38
2022-09-23T16:50:54.664Z,20.77
2022-09-23T16:55:57.936Z,15.20
2022-09-23T17:01:18.249Z,14.65
2022-09-23T17:06:19.797Z,17.35
2022-09-23T17:11:21.753Z,17.17
2022-09-23T17:16:30.821Z,17.48
2022-09-23T17:21:32.347Z,17.73
2022-09-23T17:26:34.145Z,15.40
2022-09-23T17:31:35.564Z,16.98
2022-09-23T17:36:39.518Z,19.30
2022-09-23T17:41:40.917Z,16.27
2022-09-23T17:46:42.741Z,19.33
2022-09-23T17:51:44.122Z,18.80
2022-09-23T17:56:45.511Z,20.70
2022-09-23T18:01:46.910Z,23.38
2022-09-23T18:06:48.380Z,19.85
2022-09-23T18:11:49.780Z,20.00
2022-09-23T18:16:52.358Z,21.70
2022-09-23T18:21:55.060Z,20.05
2022-09-23T18:27:00.510Z,20.38
2022-09-23T18:32:02.463Z,21.30
2022-09-23T18:37:11.515Z,26.50
2022-09-23T18:42:16.624Z,20.75
2022-09-23T18:47:37.948Z,21.73
2022-09-23T18:52:39.344Z,21.33
2022-09-23T18:57:41.196Z,22.65
2022-09-23T19:02:44.368Z,21.02
2022-09-23T19:07:45.733Z,21.90
2022-09-23T19:12:47.099Z,22.83
2022-09-23T19:17:48.519Z,24.17
2022-09-23T19:22:50.132Z,24.63
2022-09-23T19:27:51.736Z,26.15
2022-09-23T19:32:53.795Z,21.95
2022-09-23T19:37:57.220Z,20.02
2022-09-23T19:42:58.976Z,20.00
2022-09-23T19:48:02.110Z,18.42
2022-09-23T19:53:05.646Z,18.52
2022-09-23T19:58:07.127Z,16.52
2022-09-23T20:03:08.969Z,14.38
2022-09-23T20:08:10.343Z,13.43
2022-09-23T20:13:11.711Z,11.90
2022-09-23T20:18:13.047Z,12.45
2022-09-23T20:23:14.571Z,11.00
2022-09-23T20:28:15.978Z,11.93
2022-09-23T20:33:17.314Z,12.20
2022-09-23T20:38:18.691Z,11.98
2022-09-23T20:43:20.223Z,11.55
2022-09-23T20:48:22.643Z,15.40
2022-09-23T20:53:24.198Z,15.70
2022-09-23T20:58:27.004Z,13.73
2022-09-23T21:03:29.407Z,16.05
2022-09-23T21:08:31.436Z,16.75
2022-09-23T21:13:33.549Z,23.95
2022-09-23T21:18:38.112Z,26.58
2022-09-23T21:23:39.846Z,25.92
2022-09-23T21:28:42.254Z,25.95
2022-09-23T21:33:44.223Z,25.77
2022-09-23T21:38:45.698Z,27.02
2022-09-23T21:43:48.706Z,25.70
2022-09-23T21:48:53.311Z,26.75
2022-09-23T21:53:55.608Z,25.40
2022-09-23T21:58:58.153Z,26.25
2022-09-23T22:04:05.201Z,25.33
2022-09-23T22:09:08.897Z,23.45
2022-09-23T22:14:11.791Z,24.27
2022-09-23T22:19:13.812Z,24.45
2022-09-23T22:24:15.315Z,22.98
2022-09-23T22:29:35.462Z,22.60
2022-09-23T22:34:52.543Z,23.65
2022-09-23T22:39:54.455Z,19.73
2022-09-23T22:44:55.788Z,18.92
2022-09-23T22:49:57.110Z,19.42
2022-09-23T22:54:58.465Z,19.38
2022-09-23T22:59:59.772Z,19.75
2022-09-23T23:05:01.149Z,21.90
2022-09-23T23:10:03.268Z,23.73
2022-09-23T23:15:04.835Z,23.70
2022-09-23T23:20:06.554Z,23.83
2022-09-23T23:25:08.100Z,25.52
2022-09-23T23:30:09.726Z,24.15
2022-09-23T23:35:11.061Z,23.00
2022-09-23T23:40:12.462Z,20.98
2022-09-23T23:45:13.978Z,22.65
2022-09-23T23:50:15.338Z,22.25
2022-09-23T23:55:17.030Z,20.25
